»·PEaware :: AXX1354 KLAX-KSBA

AXX1354 :: KLAX-KSBA

FLIGHT INFORMATION

Flight Status: Arrived
Operator: Unknown
More flights by this operator :: More flights under this callsign
Pilot: Chris M. (15924)
Aircraft: CESSNA 172 SKYHAWK
(C172)
More flights by this aircraft type
Origin: KLAX Los Angeles Intl
United States
Destination: KSBA Santa Barbara Mun
United States
More flights between these airports :: More routes between these airports
Route: +VFR
File this flight plan on PilotEdge
Remarks: VFR
Altitude:
(Current/Filed)
8,500
Speed:
(Current/Filed)
110kts
Departed: 11-Jan-18 09:38 AM
Arrived: 11-Jan-18 10:24 AM
Distance/Time
Traveled:
77nm/0:46
Distance/Time
To Go:
Arrived

Flight Plot

Page will automatically refresh every two minutes.

Flight plan parsing failed; only flown route is shown


Map Options




Map Legend


Flown Route
Filed Route
Departure Airport
Arrival Airport
Navaid (VOR, NDB)
Fix

Horizontal Profiles

Position Reports

Time Latitude Longitude Heading Altitude Ground
Speed
11-Jan-18 09:22 33.942192 -118.384246 314 97ft 0kts
11-Jan-18 09:23 33.942192 -118.384246 314 97ft 0kts
11-Jan-18 09:24 33.942192 -118.384246 314 97ft 0kts
11-Jan-18 09:25 33.942192 -118.384246 314 97ft 0kts
11-Jan-18 09:26 33.942192 -118.384246 314 97ft 0kts
11-Jan-18 09:27 33.942192 -118.384246 314 97ft 0kts
11-Jan-18 09:28 33.942192 -118.384246 314 97ft 0kts
11-Jan-18 09:29 33.942192 -118.384246 314 97ft 0kts
11-Jan-18 09:30 33.942192 -118.384246 314 97ft 0kts
11-Jan-18 09:31 33.942192 -118.384246 314 97ft 0kts
11-Jan-18 09:32 33.942192 -118.384246 314 97ft 0kts
11-Jan-18 09:33 33.942192 -118.384246 314 97ft 0kts
11-Jan-18 09:34 33.942192 -118.384246 314 97ft 0kts
11-Jan-18 09:35 33.942192 -118.384246 314 97ft 0kts
11-Jan-18 09:36 33.942192 -118.384246 314 97ft 0kts
11-Jan-18 09:37 33.942192 -118.384246 314 97ft 0kts
11-Jan-18 09:38 33.942192 -118.384246 314 97ft 0kts
11-Jan-18 09:39 33.942128 -118.383576 151 96ft 0kts
11-Jan-18 09:40 33.941846 -118.383423 156 96ft 8kts
11-Jan-18 09:41 33.941365 -118.380786 25 96ft 8kts
11-Jan-18 09:42 33.940699 -118.380440 170 96ft 0kts
11-Jan-18 09:43 33.939733 -118.381069 261 96ft 27kts
11-Jan-18 09:44 33.936624 -118.410195 264 544ft 113kts
11-Jan-18 09:45 33.934515 -118.449333 266 1044ft 119kts
11-Jan-18 09:46 33.932448 -118.489288 266 1482ft 124kts
11-Jan-18 09:47 33.957226 -118.513874 341 1499ft 129kts
11-Jan-18 09:48 33.991269 -118.527975 342 1542ft 129kts
11-Jan-18 09:49 34.022479 -118.541142 337 2154ft 112kts
11-Jan-18 09:50 34.035374 -118.576424 289 2482ft 129kts
11-Jan-18 09:51 34.046474 -118.614418 292 3105ft 110kts
11-Jan-18 09:52 34.056720 -118.647761 294 3899ft 103kts
11-Jan-18 09:53 34.066805 -118.679971 294 4486ft 115kts
11-Jan-18 09:54 34.079133 -118.718907 293 4491ft 127kts
11-Jan-18 09:55 34.091212 -118.757120 294 4493ft 114kts
11-Jan-18 09:56 34.102090 -118.791516 294 4498ft 109kts
11-Jan-18 09:57 34.112867 -118.825782 293 4494ft 109kts
11-Jan-18 09:58 34.123473 -118.859675 293 4489ft 108kts
11-Jan-18 09:59 34.134106 -118.893653 293 4488ft 108kts
11-Jan-18 10:00 34.144679 -118.927451 293 4487ft 107kts
11-Jan-18 10:01 34.155226 -118.961227 293 4487ft 107kts
11-Jan-18 10:02 34.165680 -118.994727 292 4486ft 106kts
11-Jan-18 10:03 34.176102 -119.028154 292 4485ft 106kts
11-Jan-18 10:04 34.186521 -119.061629 292 4485ft 106kts
11-Jan-18 10:05 34.196920 -119.095070 292 4484ft 106kts
11-Jan-18 10:06 34.207343 -119.128621 292 4483ft 107kts
11-Jan-18 10:07 34.217869 -119.162544 292 4482ft 108kts
11-Jan-18 10:08 34.228440 -119.196642 292 4482ft 108kts
11-Jan-18 10:09 34.238996 -119.230737 293 4482ft 109kts
11-Jan-18 10:10 34.249704 -119.265341 293 4481ft 110kts
11-Jan-18 10:11 34.260535 -119.300317 293 4481ft 111kts
11-Jan-18 10:12 34.271350 -119.335237 293 4481ft 111kts
11-Jan-18 10:13 34.282067 -119.370018 293 4508ft 111kts
11-Jan-18 10:14 34.292931 -119.405310 293 4508ft 112kts
11-Jan-18 10:15 34.303783 -119.440605 293 4507ft 112kts
11-Jan-18 10:16 34.312838 -119.470116 293 4506ft 112kts
11-Jan-18 10:17 34.325626 -119.511790 293 4489ft 115kts
11-Jan-18 10:18 34.335311 -119.542557 296 3882ft 133kts
11-Jan-18 10:19 34.345170 -119.583589 280 1718ft 119kts
11-Jan-18 10:20 34.347865 -119.624893 271 984ft 103kts
11-Jan-18 10:21 34.348304 -119.653987 287 1124ft 104kts
11-Jan-18 10:22 34.355635 -119.688355 280 1161ft 103kts
11-Jan-18 10:23 34.370316 -119.711891 354 1338ft 96kts
11-Jan-18 10:24 34.397797 -119.713164 357 1180ft 99kts
11-Jan-18 10:25 34.419371 -119.728602 282 991ft 95kts
11-Jan-18 10:26 34.425663 -119.758821 286 1096ft 88kts
11-Jan-18 10:27 34.428976 -119.788472 267 949ft 92kts
11-Jan-18 10:28 34.428293 -119.816769 269 512ft 77kts
11-Jan-18 10:29 34.427754 -119.841376 269 14ft 54kts
11-Jan-18 10:30 34.428351 -119.845963 58 14ft 0kts
11-Jan-18 10:31 34.428417 -119.845829 60 14ft 10kts
11-Jan-18 10:32 34.430281 -119.840934 67 14ft 14kts
11-Jan-18 10:33 34.432033 -119.835244 68 14ft 19kts
11-Jan-18 10:34 34.431788 -119.833433 263 14ft 0kts
11-Jan-18 10:35 34.431788 -119.833433 263 14ft 0kts
11-Jan-18 10:36 34.431788 -119.833433 263 14ft 0kts
11-Jan-18 10:37 34.431788 -119.833433 263 14ft 0kts
11-Jan-18 10:38 34.431788 -119.833433 263 14ft 0kts
11-Jan-18 10:39 34.431788 -119.833433 263 14ft 0kts
11-Jan-18 10:40 34.431788 -119.833433 263 14ft 0kts
11-Jan-18 10:41 34.431788 -119.833433 263 14ft 0kts
11-Jan-18 10:42 34.431788 -119.833433 263 14ft 0kts
11-Jan-18 10:43 34.431788 -119.833433 263 14ft 0kts
11-Jan-18 10:44 34.431788 -119.833433 263 14ft 0kts
11-Jan-18 10:45 34.431788 -119.833433 263 14ft 0kts

Navigation Log

Ident Type
Flight plan parsing failed, navigation log unavailable